Time;durP1;ratioP1;P1;durP2;ratioP2;P2;SDS_P1;SDS_P2;PMS_P1;PMS_P2;Temp;Humidity;BMP_temperature;BMP_pressure;BME280_temperature;BME280_humidity;BME280_pressure;Samples;Min_cycle;Max_cycle;Signal;HPM_P1;HPM_P2
2023/03/09 00:00:34;;;;;;;4.47;2.07;;;;;;;4.72;66.99;95881.91;6291556;28;20304;-36
2023/03/09 00:03:36;;;;;;;2.20;1.80;;;;;;;4.44;67.50;95860.00;6288435;28;20223;-36
2023/03/09 00:06:39;;;;;;;4.57;1.83;;;;;;;4.48;67.56;95850.53;6289633;28;20237;-37
2023/03/09 00:09:41;;;;;;;2.00;1.70;;;;;;;4.27;67.58;95840.81;6290203;28;20229;-37
2023/03/09 00:12:43;;;;;;;3.83;1.50;;;;;;;4.32;67.80;95857.50;6294644;28;20233;-36
2023/03/09 00:15:49;;;;;;;2.27;1.57;;;;;;;4.27;67.67;95857.44;6291135;28;20632;-37
2023/03/09 00:18:53;;;;;;;4.43;1.80;;;;;;;4.24;68.25;95860.59;6293623;28;20224;-36
2023/03/09 00:21:57;;;;;;;1.67;1.57;;;;;;;4.21;68.32;95841.81;6290986;28;20260;-37
2023/03/09 00:24:59;;;;;;;2.00;1.70;;;;;;;4.12;68.89;95852.78;6274969;28;20241;-37
2023/03/09 00:28:01;;;;;;;2.23;1.93;;;;;;;4.09;69.19;95805.06;6307591;28;20226;-37
2023/03/09 00:31:05;;;;;;;2.33;1.80;;;;;;;4.07;69.85;95813.19;6276594;28;20241;-37
2023/03/09 00:34:10;;;;;;;2.83;1.70;;;;;;;3.92;70.85;95838.56;6272415;28;20253;-37
2023/03/09 00:37:14;;;;;;;4.53;1.60;;;;;;;3.50;70.96;95760.91;6292401;28;20234;-35
2023/03/09 00:40:16;;;;;;;1.80;1.70;;;;;;;4.07;70.67;95833.47;6289139;28;20607;-34
2023/03/09 00:43:18;;;;;;;2.87;1.93;;;;;;;3.83;70.85;95759.97;6291029;28;20229;-34
2023/03/09 00:46:20;;;;;;;4.57;2.00;;;;;;;4.08;70.59;95772.63;6272640;28;20601;-35
2023/03/09 00:49:22;;;;;;;3.20;1.90;;;;;;;4.09;70.59;95749.75;6289173;28;20229;-35
2023/03/09 00:52:25;;;;;;;3.27;2.10;;;;;;;3.96;70.83;95731.69;6275362;28;20240;-35
2023/03/09 00:55:27;;;;;;;1.97;1.60;;;;;;;3.93;71.11;95729.53;6270860;28;20241;-35
2023/03/09 00:58:30;;;;;;;2.83;1.47;;;;;;;3.72;71.09;95710.88;6274527;28;20588;-35
2023/03/09 01:01:32;;;;;;;2.00;1.67;;;;;;;4.00;70.65;95746.75;6273862;28;20303;-34
2023/03/09 01:04:34;;;;;;;2.13;1.83;;;;;;;3.80;70.71;95678.06;6289354;28;20238;-35
2023/03/09 01:07:37;;;;;;;3.00;1.60;;;;;;;3.96;70.75;95716.66;6287155;28;20238;-35
2023/03/09 01:10:40;;;;;;;4.17;1.93;;;;;;;3.88;71.03;95730.25;6273661;28;20234;-35
2023/03/09 01:13:44;;;;;;;4.77;2.10;;;;;;;3.79;71.54;95708.88;6290643;28;20378;-35
2023/03/09 01:16:46;;;;;;;2.90;1.50;;;;;;;3.83;71.17;95711.78;6292543;28;20638;-35
2023/03/09 01:19:48;;;;;;;1.70;1.60;;;;;;;2.85;70.79;95566.97;6290532;28;20238;-35
2023/03/09 01:22:50;;;;;;;3.50;1.80;;;;;;;3.73;70.93;95712.47;6296503;28;20312;-35
2023/03/09 01:25:53;;;;;;;2.00;1.70;;;;;;;3.71;70.92;95719.03;6293875;28;20237;-35
2023/03/09 01:28:55;;;;;;;2.53;1.93;;;;;;;3.70;71.08;95723.50;6296906;28;20323;-35
2023/03/09 01:31:56;;;;;;;2.97;2.00;;;;;;;3.71;71.01;95719.81;6277978;28;20779;-35
2023/03/09 01:34:59;;;;;;;2.07;1.60;;;;;;;3.67;71.07;95710.81;6293716;28;20229;-35
2023/03/09 01:38:01;;;;;;;2.40;1.70;;;;;;;3.66;71.23;95711.06;6269889;28;20234;-35
2023/03/09 01:41:03;;;;;;;2.23;1.47;;;;;;;3.63;71.39;95699.19;6275877;28;20232;-35
2023/03/09 01:44:08;;;;;;;1.97;1.57;;;;;;;3.64;71.40;95682.34;6297354;28;21827;-35
2023/03/09 01:47:10;;;;;;;2.97;1.70;;;;;;;3.60;71.90;95668.09;6292699;28;20597;-35
2023/03/09 01:50:21;;;;;;;2.97;1.90;;;;;;;3.61;72.01;95667.06;6275793;28;20343;-35
2023/03/09 01:53:24;;;;;;;1.97;1.70;;;;;;;3.66;72.03;95679.47;6294172;28;20383;-35
2023/03/09 01:56:28;;;;;;;1.53;1.43;;;;;;;3.30;72.39;95608.81;6294825;28;20708;-35
2023/03/09 01:59:33;;;;;;;2.03;1.60;;;;;;;3.64;72.37;95684.97;6272896;28;20222;-35
2023/03/09 02:02:39;;;;;;;1.70;1.60;;;;;;;3.54;72.92;95690.91;6297183;28;20229;-35
2023/03/09 02:06:06;;;;;;;2.07;1.60;;;;;;;3.54;72.86;95661.16;6306406;28;20222;-35
2023/03/09 02:09:29;;;;;;;2.80;1.77;;;;;;;3.67;72.52;95683.69;6293728;28;20781;-35
2023/03/09 02:12:34;;;;;;;1.57;1.40;;;;;;;3.61;73.50;95678.38;6292181;28;20787;-35
2023/03/09 02:15:36;;;;;;;4.73;1.70;;;;;;;3.63;73.07;95665.75;6295170;28;20237;-35
2023/03/09 02:18:41;;;;;;;3.00;1.73;;;;;;;3.62;73.13;95684.44;6279713;28;20234;-35
2023/03/09 02:21:50;;;;;;;1.70;1.53;;;;;;;3.53;73.10;95678.81;6294766;28;20233;-35
2023/03/09 02:25:03;;;;;;;2.93;1.83;;;;;;;3.59;72.81;95677.81;6294401;28;20243;-35
2023/03/09 02:28:06;;;;;;;3.40;1.83;;;;;;;3.53;72.56;95689.34;6277590;28;20242;-35
2023/03/09 02:31:10;;;;;;;2.10;1.50;;;;;;;3.52;72.94;95673.78;6274923;28;20601;-35
2023/03/09 02:34:12;;;;;;;1.87;1.60;;;;;;;3.58;72.98;95686.75;6296765;28;20711;-35
2023/03/09 02:37:39;;;;;;;2.07;1.47;;;;;;;3.35;72.97;95637.81;6273735;28;20265;-35
2023/03/09 02:40:56;;;;;;;3.50;1.70;;;;;;;3.42;73.17;95660.53;6306951;28;20709;-35
2023/03/09 02:44:00;;;;;;;2.73;1.70;;;;;;;3.21;72.82;95623.44;6277131;28;20701;-35
2023/03/09 02:47:13;;;;;;;1.70;1.43;;;;;;;3.40;72.49;95646.78;6291561;28;20335;-35
2023/03/09 02:50:15;;;;;;;3.70;1.90;;;;;;;3.53;72.15;95675.38;6290515;28;20285;-35
2023/03/09 02:53:19;;;;;;;2.30;1.80;;;;;;;3.55;71.86;95652.25;6295333;28;20225;-35
2023/03/09 02:56:21;;;;;;;2.97;2.00;;;;;;;3.47;72.53;95668.47;6277647;28;20744;-35
2023/03/09 02:59:23;;;;;;;2.70;2.00;;;;;;;3.53;72.40;95651.69;6284418;28;20228;-35
2023/03/09 03:02:26;;;;;;;3.20;2.10;;;;;;;3.56;72.09;95652.00;6297574;28;20631;-35
2023/03/09 03:05:29;;;;;;;3.27;2.10;;;;;;;3.60;72.04;95642.56;6295745;28;20227;-35
2023/03/09 03:08:32;;;;;;;2.53;1.87;;;;;;;3.56;71.86;95654.63;6311203;28;20225;-35
2023/03/09 03:11:40;;;;;;;3.30;2.03;;;;;;;3.59;71.66;95653.31;6292306;28;20697;-35
2023/03/09 03:14:42;;;;;;;2.40;1.87;;;;;;;3.59;71.59;95650.69;6289062;28;20235;-35
2023/03/09 03:17:47;;;;;;;2.20;1.90;;;;;;;3.63;71.48;95649.16;6308208;28;20605;-36
2023/03/09 03:20:49;;;;;;;2.13;1.93;;;;;;;3.61;71.52;95653.88;6275544;28;20238;-35
2023/03/09 03:23:52;;;;;;;2.60;2.00;;;;;;;3.61;71.70;95659.16;6273307;28;20222;-35
2023/03/09 03:26:54;;;;;;;3.53;2.10;;;;;;;3.59;71.93;95664.66;6270429;28;20237;-35
2023/03/09 03:29:58;;;;;;;4.07;2.10;;;;;;;3.63;71.89;95672.84;6274537;28;20517;-35
2023/03/09 03:33:00;;;;;;;2.70;2.37;;;;;;;3.61;71.45;95677.59;6270921;28;20293;-35
2023/03/09 03:36:06;;;;;;;3.43;2.47;;;;;;;3.61;71.62;95674.94;6265814;28;20223;-35
2023/03/09 03:39:10;;;;;;;2.43;2.10;;;;;;;3.67;71.70;95646.84;6267158;28;20225;-35
2023/03/09 03:42:12;;;;;;;2.83;2.30;;;;;;;3.65;71.47;95655.00;6264498;28;20712;-35
2023/03/09 03:45:14;;;;;;;4.87;2.30;;;;;;;3.52;71.97;95643.00;6268813;28;20296;-35
2023/03/09 03:48:17;;;;;;;4.40;2.60;;;;;;;3.64;72.22;95658.66;6266259;28;20589;-35
2023/03/09 03:51:19;;;;;;;4.80;2.47;;;;;;;3.68;71.83;95662.38;6263716;28;20909;-35
2023/03/09 03:54:24;;;;;;;2.23;2.03;;;;;;;3.59;71.75;95648.06;6267346;28;20304;-35
2023/03/09 03:57:26;;;;;;;4.43;2.40;;;;;;;3.43;71.89;95617.38;6263341;28;20702;-35
2023/03/09 04:00:29;;;;;;;4.13;2.07;;;;;;;3.65;71.94;95659.47;6265814;28;20309;-35
2023/03/09 04:03:34;;;;;;;2.80;2.50;;;;;;;3.67;72.05;95655.53;6264902;28;20567;-35
2023/03/09 04:06:38;;;;;;;3.17;2.17;;;;;;;3.74;72.15;95674.53;6264983;28;20232;-35
2023/03/09 04:09:41;;;;;;;3.93;2.27;;;;;;;3.81;72.07;95677.78;6265668;28;20222;-35
2023/03/09 04:12:43;;;;;;;3.47;2.30;;;;;;;3.82;71.98;95663.56;6265617;28;20234;-35
2023/03/09 04:15:46;;;;;;;3.23;2.37;;;;;;;3.94;72.13;95675.78;6264203;28;20702;-35
2023/03/09 04:18:49;;;;;;;2.80;2.07;;;;;;;3.97;72.01;95672.69;6267345;28;20229;-35
2023/03/09 04:21:53;;;;;;;3.67;2.30;;;;;;;4.01;71.99;95681.69;6272750;28;20238;-35
2023/03/09 04:24:56;;;;;;;2.60;2.23;;;;;;;3.92;71.99;95673.41;6264636;28;20242;-35
2023/03/09 04:27:58;;;;;;;2.50;2.00;;;;;;;3.95;72.04;95669.50;6281814;28;20280;-35
2023/03/09 04:31:08;;;;;;;3.27;2.20;;;;;;;3.98;71.94;95669.78;6292796;28;20241;-35
2023/03/09 04:34:11;;;;;;;2.27;1.90;;;;;;;3.99;72.03;95666.13;6271818;28;20237;-35
2023/03/09 04:37:15;;;;;;;2.87;2.00;;;;;;;3.97;71.78;95662.94;6295801;28;20287;-35
2023/03/09 04:40:18;;;;;;;4.33;1.93;;;;;;;3.90;71.95;95672.88;6277123;28;20238;-35
2023/03/09 04:43:22;;;;;;;4.53;2.27;;;;;;;3.86;72.17;95671.78;6272243;28;20681;-34
2023/03/09 04:46:24;;;;;;;4.43;2.03;;;;;;;3.80;72.46;95657.78;6279852;28;20828;-37
2023/03/09 04:49:30;;;;;;;1.93;1.77;;;;;;;3.78;71.99;95657.22;6271699;28;20371;-37
2023/03/09 04:52:33;;;;;;;3.73;2.10;;;;;;;3.78;71.94;95654.56;6287574;28;20230;-36
2023/03/09 04:55:36;;;;;;;4.33;2.27;;;;;;;3.53;71.56;95626.16;6278050;28;20272;-36
2023/03/09 04:58:42;;;;;;;1.90;1.70;;;;;;;3.70;71.46;95651.63;6261801;28;20233;-35
2023/03/09 05:01:45;;;;;;;2.73;2.03;;;;;;;3.70;71.56;95656.88;6277707;28;20728;-35
2023/03/09 05:04:52;;;;;;;4.70;2.27;;;;;;;3.45;72.18;95660.84;6276213;28;20736;-35
2023/03/09 05:07:55;;;;;;;2.00;1.63;;;;;;;3.44;71.80;95646.06;6297175;28;20229;-35
2023/03/09 05:10:58;;;;;;;2.13;1.73;;;;;;;3.33;71.69;95650.41;6280434;28;20711;-35
2023/03/09 05:14:01;;;;;;;2.23;1.80;;;;;;;3.28;71.93;95653.00;6261197;28;20237;-35
2023/03/09 05:17:05;;;;;;;2.50;2.03;;;;;;;3.26;72.18;95644.56;6280095;28;20241;-35
2023/03/09 05:20:10;;;;;;;3.47;1.77;;;;;;;3.15;72.25;95649.91;6294995;28;20229;-36
2023/03/09 05:23:16;;;;;;;2.10;1.43;;;;;;;3.02;72.54;95637.94;6308092;28;20229;-35
2023/03/09 05:26:18;;;;;;;2.10;1.73;;;;;;;2.84;72.03;95616.16;6293841;28;20701;-35
2023/03/09 05:29:24;;;;;;;3.50;1.80;;;;;;;3.12;72.06;95672.25;6281481;28;20236;-36
2023/03/09 05:32:26;;;;;;;2.67;1.90;;;;;;;3.09;72.38;95683.25;6295395;28;20756;-36
2023/03/09 05:35:29;;;;;;;3.23;2.10;;;;;;;2.78;73.18;95653.13;6291853;28;20228;-36
2023/03/09 05:38:32;;;;;;;2.37;1.80;;;;;;;3.08;73.14;95711.41;6275891;28;20217;-35
2023/03/09 05:41:34;;;;;;;2.50;1.63;;;;;;;3.27;73.13;95738.25;6273627;28;20230;-36
2023/03/09 05:44:46;;;;;;;2.17;1.70;;;;;;;3.34;73.94;95791.47;6298389;28;20234;-36
2023/03/09 05:47:48;;;;;;;3.10;1.90;;;;;;;3.51;74.57;95804.63;6280669;28;20225;-36
2023/03/09 05:50:50;;;;;;;1.53;1.43;;;;;;;4.19;75.37;95775.38;6269539;28;20600;-35
2023/03/09 05:53:52;;;;;;;2.43;1.90;;;;;;;4.76;72.35;95767.72;6277085;28;20229;-36
2023/03/09 05:56:56;;;;;;;1.83;1.67;;;;;;;5.00;71.80;95757.63;6279630;28;20236;-36
2023/03/09 05:59:58;;;;;;;2.53;2.00;;;;;;;5.27;71.60;95768.13;6274965;28;20225;-36
2023/03/09 06:03:02;;;;;;;2.23;1.47;;;;;;;6.03;69.78;95737.81;6295321;28;20222;-36
2023/03/09 06:06:35;;;;;;;1.00;0.90;;;;;;;6.95;67.92;95736.06;6281802;28;20226;-36
2023/03/09 06:09:37;;;;;;;1.50;1.27;;;;;;;7.69;65.75;95759.22;6308317;28;20517;-36
2023/03/09 06:12:45;;;;;;;5.57;0.83;;;;;;;8.60;62.11;95749.22;6274336;28;20692;-36
2023/03/09 06:15:47;;;;;;;1.57;0.80;;;;;;;9.19;60.01;95737.56;6293427;28;20231;-36
2023/03/09 06:18:50;;;;;;;2.53;0.77;;;;;;;9.67;57.52;95716.34;6274107;28;20646;-36
2023/03/09 06:21:52;;;;;;;0.70;0.70;;;;;;;9.64;57.32;95670.91;6296410;28;20321;-36
2023/03/09 06:24:54;;;;;;;0.50;0.50;;;;;;;9.85;57.36;95706.00;6306189;28;20724;-36
2023/03/09 06:27:56;;;;;;;1.00;0.70;;;;;;;9.97;57.08;95731.13;6292019;28;20324;-36
2023/03/09 06:31:11;;;;;;;1.40;0.70;;;;;;;10.31;55.95;95717.69;6277855;28;20239;-36
2023/03/09 06:34:16;;;;;;;3.03;0.90;;;;;;;10.60;55.72;95711.41;6295813;28;20242;-36
2023/03/09 06:37:18;;;;;;;0.50;0.50;;;;;;;10.83;54.80;95709.69;6296037;28;20687;-35
2023/03/09 06:40:21;;;;;;;1.93;0.57;;;;;;;10.98;54.44;95722.75;6275494;28;20317;-35
2023/03/09 06:43:25;;;;;;;0.70;0.60;;;;;;;11.07;53.09;95707.69;6275702;28;20228;-35
2023/03/09 06:46:28;;;;;;;0.77;0.57;;;;;;;11.42;53.28;95745.44;6274525;28;20235;-35
2023/03/09 06:49:30;;;;;;;1.43;0.47;;;;;;;11.49;52.65;95761.09;6290859;28;20240;-36
2023/03/09 06:52:38;;;;;;;0.50;0.50;;;;;;;11.48;53.54;95751.50;6273777;28;20240;-35
2023/03/09 06:55:41;;;;;;;0.47;0.43;;;;;;;11.32;53.86;95725.09;6311020;28;20353;-35
2023/03/09 06:58:43;;;;;;;1.10;0.53;;;;;;;11.47;53.50;95742.69;6271590;28;20230;-36
2023/03/09 07:01:45;;;;;;;0.43;0.30;;;;;;;11.48;53.70;95735.50;6292116;28;20243;-35
2023/03/09 07:04:48;;;;;;;0.50;0.40;;;;;;;11.52;53.74;95731.94;6294305;28;20227;-36
2023/03/09 07:07:50;;;;;;;1.50;0.50;;;;;;;11.52;53.59;95729.25;6292517;28;20231;-36
2023/03/09 07:10:52;;;;;;;1.87;0.30;;;;;;;11.63;53.43;95717.34;6292667;28;20731;-36
2023/03/09 07:13:56;;;;;;;0.73;0.40;;;;;;;11.81;53.51;95736.19;6295147;28;20236;-36
2023/03/09 07:16:58;;;;;;;1.50;0.43;;;;;;;12.12;52.57;95745.22;6291314;28;20231;-36
2023/03/09 07:20:00;;;;;;;0.63;0.43;;;;;;;12.25;52.28;95743.59;6292011;28;20232;-36
2023/03/09 07:23:02;;;;;;;2.57;0.57;;;;;;;12.24;51.81;95776.72;6273224;28;20230;-36
2023/03/09 07:26:04;;;;;;;0.57;0.50;;;;;;;12.38;51.27;95768.69;6294312;28;20279;-36
2023/03/09 07:29:07;;;;;;;0.40;0.40;;;;;;;12.41;51.00;95746.72;6295381;28;20232;-36
2023/03/09 07:32:09;;;;;;;0.70;0.50;;;;;;;12.52;50.79;95748.09;6292798;28;20371;-36
2023/03/09 07:35:11;;;;;;;0.37;0.30;;;;;;;12.69;50.63;95762.66;6292511;28;20233;-36
2023/03/09 07:38:13;;;;;;;1.37;0.40;;;;;;;12.74;50.18;95751.88;6290573;28;20589;-36
2023/03/09 07:41:15;;;;;;;0.30;0.30;;;;;;;13.21;49.48;95805.84;6287574;28;20314;-36
2023/03/09 07:44:17;;;;;;;0.53;0.40;;;;;;;13.13;49.31;95810.81;6293734;28;20226;-36
2023/03/09 07:47:19;;;;;;;2.57;0.50;;;;;;;12.93;49.07;95762.38;6294835;28;20702;-36
2023/03/09 07:50:21;;;;;;;1.43;0.60;;;;;;;13.02;49.22;95788.09;6287527;28;20231;-36
2023/03/09 07:53:24;;;;;;;0.80;0.60;;;;;;;13.11;49.40;95801.53;6291203;28;20284;-36
2023/03/09 07:56:26;;;;;;;0.50;0.40;;;;;;;13.20;48.49;95825.63;6287401;28;20320;-36
2023/03/09 07:59:28;;;;;;;0.77;0.40;;;;;;;13.14;48.62;95812.38;6289570;28;20230;-36
2023/03/09 08:02:30;;;;;;;0.37;0.37;;;;;;;13.08;48.96;95820.84;6291314;28;20705;-36
2023/03/09 08:05:32;;;;;;;0.63;0.40;;;;;;;13.05;49.40;95813.41;6294183;28;20228;-36
2023/03/09 08:08:34;;;;;;;1.70;0.50;;;;;;;12.99;49.43;95836.78;6289494;28;20230;-36
2023/03/09 08:11:36;;;;;;;0.30;0.30;;;;;;;13.39;48.76;95843.09;6291357;28;20237;-36
2023/03/09 08:14:38;;;;;;;0.90;0.40;;;;;;;13.59;47.21;95830.31;6290455;28;20742;-36
2023/03/09 08:17:40;;;;;;;0.40;0.40;;;;;;;13.47;46.66;95832.78;6292027;28;20226;-36
2023/03/09 08:20:42;;;;;;;0.50;0.40;;;;;;;13.36;47.36;95859.78;6294257;28;20231;-36
2023/03/09 08:23:44;;;;;;;0.40;0.40;;;;;;;13.47;46.35;95822.88;6290508;28;20223;-36
2023/03/09 08:26:46;;;;;;;0.20;0.20;;;;;;;14.29;44.76;95834.91;6290415;28;20611;-36
2023/03/09 08:29:49;;;;;;;0.50;0.40;;;;;;;16.07;40.48;95815.16;6290042;28;20613;-36
2023/03/09 08:32:53;;;;;;;0.43;0.30;;;;;;;16.74;39.24;95837.75;6290600;28;20226;-36
2023/03/09 08:35:55;;;;;;;0.80;0.40;;;;;;;16.41;38.79;95869.84;6290207;28;20569;-36
2023/03/09 08:38:57;;;;;;;0.30;0.30;;;;;;;16.01;40.19;95851.38;6290301;28;20238;-36
2023/03/09 08:41:59;;;;;;;0.30;0.30;;;;;;;16.66;38.81;95835.88;6289255;28;20290;-36
2023/03/09 08:45:03;;;;;;;0.90;0.30;;;;;;;17.44;37.51;95860.34;6292585;28;20229;-36
2023/03/09 08:48:06;;;;;;;0.40;0.40;;;;;;;17.34;37.33;95849.97;6286203;28;20203;-36
2023/03/09 08:51:10;;;;;;;0.33;0.33;;;;;;;16.79;38.38;95851.00;6290515;28;20586;-36
2023/03/09 08:54:12;;;;;;;0.70;0.40;;;;;;;15.78;39.85;95856.16;6290697;28;20294;-36
2023/03/09 08:57:14;;;;;;;0.43;0.33;;;;;;;15.79;40.03;95879.22;6288112;28;20246;-36
2023/03/09 09:00:17;;;;;;;0.33;0.33;;;;;;;15.66;40.66;95881.00;6288255;28;20681;-36
2023/03/09 09:03:19;;;;;;;0.30;0.30;;;;;;;15.64;40.36;95875.13;6289921;28;20793;-36
2023/03/09 09:06:22;;;;;;;0.63;0.33;;;;;;;15.25;40.87;95851.16;6290811;28;20232;-36
2023/03/09 09:09:24;;;;;;;0.40;0.40;;;;;;;15.41;40.41;95884.44;6293498;28;20225;-36
2023/03/09 09:12:27;;;;;;;0.20;0.20;;;;;;;15.30;41.54;95929.56;6276581;28;20225;-36
2023/03/09 09:15:30;;;;;;;1.07;0.30;;;;;;;14.78;42.14;95928.69;6289918;28;20720;-36
2023/03/09 09:18:33;;;;;;;0.30;0.20;;;;;;;14.34;43.78;95943.81;6290559;28;20597;-36
2023/03/09 09:21:42;;;;;;;1.20;0.60;;;;;;;14.15;45.04;95947.47;6289486;28;20230;-36
2023/03/09 09:24:44;;;;;;;1.97;0.33;;;;;;;14.24;45.00;95960.94;6290034;28;20371;-36
2023/03/09 09:27:50;;;;;;;0.40;0.40;;;;;;;13.96;45.06;95922.81;6290198;28;20229;-36
2023/03/09 09:30:55;;;;;;;0.53;0.20;;;;;;;14.41;45.63;95976.28;6292925;28;20229;-36
2023/03/09 09:33:57;;;;;;;2.13;0.63;;;;;;;14.56;45.03;95975.13;6290047;28;20230;-36
2023/03/09 09:37:00;;;;;;;0.37;0.37;;;;;;;14.61;45.00;95989.19;6290531;28;20221;-36
2023/03/09 09:40:03;;;;;;;1.50;0.30;;;;;;;14.66;45.14;95986.34;6289835;28;20281;-36
2023/03/09 09:43:05;;;;;;;1.60;0.40;;;;;;;14.58;46.15;95976.41;6294658;28;20303;-36
2023/03/09 09:46:12;;;;;;;0.30;0.30;;;;;;;14.51;45.28;95968.00;6296239;28;20236;-36
2023/03/09 09:49:23;;;;;;;0.73;0.30;;;;;;;14.37;46.10;95969.97;6292638;28;20237;-36
2023/03/09 09:52:34;;;;;;;0.20;0.20;;;;;;;14.68;45.33;95978.81;6295489;28;20696;-36
2023/03/09 09:55:41;;;;;;;0.50;0.23;;;;;;;15.18;44.90;95956.25;6295073;28;20244;-36
2023/03/09 09:58:53;;;;;;;0.47;0.23;;;;;;;15.57;43.47;95963.38;6293330;28;20721;-36
2023/03/09 10:02:06;;;;;;;0.27;0.27;;;;;;;15.68;42.88;95970.03;6295053;28;20601;-36
2023/03/09 10:05:22;;;;;;;0.67;0.40;;;;;;;15.61;42.69;95963.50;6294677;28;20241;-36
2023/03/09 10:09:11;;;;;;;1.40;0.30;;;;;;;15.38;42.60;95985.16;6291348;28;20255;-36
2023/03/09 10:12:15;;;;;;;0.43;0.30;;;;;;;15.26;42.94;96000.25;6225681;28;20315;-36
2023/03/09 10:15:30;;;;;;;0.60;0.30;;;;;;;14.88;43.63;96003.50;6228435;28;20227;-36
2023/03/09 10:18:36;;;;;;;0.50;0.33;;;;;;;14.63;43.75;95989.66;6229297;28;20333;-36
2023/03/09 10:21:41;;;;;;;0.40;0.30;;;;;;;15.28;43.73;95995.38;6227495;28;20244;-36
2023/03/09 10:24:51;;;;;;;1.00;0.43;;;;;;;15.54;41.10;95966.69;6228700;28;20700;-36
2023/03/09 10:28:07;;;;;;;1.17;0.27;;;;;;;15.83;40.98;95984.09;6229003;28;20363;-36
2023/03/09 10:31:22;;;;;;;0.50;0.40;;;;;;;16.00;40.53;95997.50;6222513;28;20234;-36
2023/03/09 10:34:26;;;;;;;0.40;0.33;;;;;;;15.93;40.57;96013.31;6228079;28;20239;-36
2023/03/09 10:37:34;;;;;;;1.17;0.50;;;;;;;16.45;39.94;96010.53;6223440;28;20335;-36
2023/03/09 10:40:49;;;;;;;1.77;0.60;;;;;;;16.68;39.18;96021.84;6227903;28;20246;-36
2023/03/09 10:43:57;;;;;;;1.30;0.60;;;;;;;16.63;38.90;96022.81;6226957;28;20266;-36
2023/03/09 10:47:01;;;;;;;1.13;0.50;;;;;;;16.45;38.32;96038.22;6241587;28;20258;-36
2023/03/09 10:50:11;;;;;;;1.67;0.50;;;;;;;16.90;38.20;96040.50;6267023;28;20239;-36
2023/03/09 10:53:31;;;;;;;2.10;0.90;;;;;;;16.33;37.12;96048.81;6272733;28;20239;-36
2023/03/09 10:56:42;;;;;;;2.67;0.80;;;;;;;15.90;38.82;96043.47;6269783;28;20227;-36
2023/03/09 10:59:55;;;;;;;2.33;0.70;;;;;;;16.10;37.76;96066.22;6266735;28;20230;-36
2023/03/09 11:03:01;;;;;;;0.80;0.60;;;;;;;16.57;37.81;96098.59;6299722;28;20690;-36
2023/03/09 11:06:15;;;;;;;8.20;0.90;;;;;;;16.40;36.16;96094.00;6267508;28;20283;-36
2023/03/09 11:09:24;;;;;;;1.70;0.63;;;;;;;16.15;36.82;96071.44;6265459;28;20619;-36
2023/03/09 11:12:39;;;;;;;2.83;0.70;;;;;;;15.65;37.70;96080.72;6267015;28;20255;-36
2023/03/09 11:15:41;;;;;;;2.30;0.90;;;;;;;15.48;38.66;96086.81;6267191;28;20237;-36
2023/03/09 11:18:45;;;;;;;1.60;0.80;;;;;;;15.48;39.15;96126.28;6265974;28;20782;-36
2023/03/09 11:21:55;;;;;;;0.80;0.50;;;;;;;15.43;39.41;96107.66;6267378;28;20234;-36
2023/03/09 11:24:58;;;;;;;2.60;0.80;;;;;;;15.18;40.13;96117.97;6264711;28;20246;-36
2023/03/09 11:28:11;;;;;;;3.37;2.07;;;;;;;15.01;39.79;96123.25;6285383;28;20662;-36
2023/03/09 11:31:17;;;;;;;2.97;1.10;;;;;;;15.09;40.27;96119.81;6295214;28;20388;-36
2023/03/09 11:34:30;;;;;;;4.10;0.63;;;;;;;15.48;39.72;96110.97;6288499;28;20250;-36
2023/03/09 11:37:44;;;;;;;1.37;0.60;;;;;;;15.86;38.08;96098.91;6291777;28;20736;-36
2023/03/09 11:40:50;;;;;;;1.60;0.77;;;;;;;16.48;37.07;96109.34;6292704;28;20713;-36
2023/03/09 11:44:03;;;;;;;0.57;0.50;;;;;;;16.96;36.69;96117.22;6297341;28;20233;-36
2023/03/09 11:47:36;;;;;;;1.87;0.80;;;;;;;16.77;36.05;96097.94;6293250;28;20236;-36
2023/03/09 11:51:05;;;;;;;3.97;1.00;;;;;;;16.49;37.01;96129.75;6215670;28;20615;-36
2023/03/09 11:54:29;;;;;;;2.77;0.97;;;;;;;16.08;36.35;96135.59;6214405;28;20280;-36
2023/03/09 11:57:34;;;;;;;1.53;0.80;;;;;;;15.74;36.90;96127.16;6218854;28;20228;-36
2023/03/09 12:00:41;;;;;;;1.47;0.80;;;;;;;15.96;36.74;96136.22;6215504;28;20219;-35
2023/03/09 12:03:57;;;;;;;3.90;0.87;;;;;;;15.87;37.09;96138.91;6213429;28;20748;-36
2023/03/09 12:07:07;;;;;;;2.60;0.90;;;;;;;16.29;36.51;96149.97;6212946;28;20238;-35
2023/03/09 12:10:24;;;;;;;1.83;0.90;;;;;;;15.84;36.79;96154.84;6212914;28;20296;-35
2023/03/09 12:13:37;;;;;;;3.53;0.80;;;;;;;16.06;36.80;96154.72;6217118;28;20655;-36
2023/03/09 12:16:41;;;;;;;2.80;0.90;;;;;;;15.74;37.72;96148.66;6213644;28;20232;-35
2023/03/09 12:19:50;;;;;;;1.70;0.70;;;;;;;15.83;37.36;96162.09;6216179;28;20704;-35
2023/03/09 12:22:52;;;;;;;2.70;0.80;;;;;;;15.80;38.03;96156.56;6212152;28;20247;-36
2023/03/09 12:25:58;;;;;;;1.17;0.50;;;;;;;15.73;37.84;96167.75;6223051;28;20921;-36
2023/03/09 12:29:05;;;;;;;5.13;1.00;;;;;;;15.72;38.81;96161.59;6277191;28;20562;-37
2023/03/09 12:32:26;;;;;;;2.20;0.90;;;;;;;15.97;38.09;96184.25;6291408;28;20225;-36
2023/03/09 12:35:57;;;;;;;1.97;0.70;;;;;;;16.12;37.49;96172.28;6289059;28;20313;-35
2023/03/09 12:39:21;;;;;;;3.67;1.10;;;;;;;16.07;38.05;96172.41;6294415;28;20226;-35
2023/03/09 12:42:45;;;;;;;2.10;0.70;;;;;;;16.29;37.33;96174.16;6290028;28;20234;-35
2023/03/09 12:45:49;;;;;;;2.60;0.70;;;;;;;16.38;36.82;96166.91;6291069;28;20832;-35
2023/03/09 12:48:52;;;;;;;2.63;0.80;;;;;;;16.23;37.61;96205.00;6290097;28;20229;-35
2023/03/09 12:52:05;;;;;;;0.93;0.70;;;;;;;16.04;36.72;96191.84;6270887;28;20314;-36
2023/03/09 12:55:18;;;;;;;3.07;0.70;;;;;;;15.91;38.97;96190.88;6288470;28;20226;-36
2023/03/09 12:58:24;;;;;;;1.63;0.70;;;;;;;15.87;38.03;96205.25;6293812;28;20761;-35
2023/03/09 13:01:33;;;;;;;3.37;0.83;;;;;;;15.29;38.64;96149.88;6288227;28;20721;-35
2023/03/09 13:04:35;;;;;;;2.07;0.73;;;;;;;15.67;38.55;96187.81;6273065;28;20234;-35
2023/03/09 13:07:39;;;;;;;2.07;0.70;;;;;;;15.82;38.68;96195.44;6289516;28;20245;-36
2023/03/09 13:10:41;;;;;;;1.87;0.70;;;;;;;15.59;38.71;96200.06;6287080;28;20647;-35
2023/03/09 13:13:45;;;;;;;2.47;0.60;;;;;;;15.75;39.31;96192.38;6291629;28;20709;-36
2023/03/09 13:16:49;;;;;;;1.20;0.50;;;;;;;15.93;38.83;96217.41;6292060;28;20229;-35
2023/03/09 13:19:55;;;;;;;2.77;0.70;;;;;;;15.75;39.22;96219.25;6293279;28;20977;-35
2023/03/09 13:23:05;;;;;;;2.00;0.80;;;;;;;15.69;38.58;96240.06;6294183;28;20328;-35
2023/03/09 13:26:15;;;;;;;1.37;0.50;;;;;;;15.69;38.19;96245.44;6291835;28;20231;-36
2023/03/09 13:29:21;;;;;;;0.70;0.50;;;;;;;15.66;38.63;96253.31;6293526;28;20260;-35
2023/03/09 13:32:28;;;;;;;4.10;0.70;;;;;;;15.72;38.80;96211.81;6296443;28;20313;-35
2023/03/09 13:35:51;;;;;;;2.47;0.73;;;;;;;15.63;37.92;96262.78;6291359;28;20215;-36
2023/03/09 13:39:05;;;;;;;3.07;1.00;;;;;;;15.61;39.58;96240.78;6296085;28;20232;-35
2023/03/09 13:42:15;;;;;;;1.97;0.70;;;;;;;15.90;38.54;96283.28;6291361;28;20239;-36
2023/03/09 13:45:23;;;;;;;1.43;0.73;;;;;;;15.93;37.87;96234.31;6294845;28;20658;-36
2023/03/09 13:48:27;;;;;;;1.63;0.70;;;;;;;16.02;38.84;96241.63;6294941;28;20226;-36
2023/03/09 13:51:36;;;;;;;2.50;0.70;;;;;;;16.15;38.08;96238.78;6293170;28;20218;-36
2023/03/09 13:54:56;;;;;;;3.27;0.90;;;;;;;16.47;38.04;96245.66;6290959;28;20356;-36
2023/03/09 13:58:18;;;;;;;2.27;0.60;;;;;;;16.57;37.30;96258.00;6294064;28;20710;-35
2023/03/09 14:01:29;;;;;;;1.43;0.70;;;;;;;15.97;38.13;96251.41;6297612;28;20253;-36
2023/03/09 14:04:32;;;;;;;1.20;0.60;;;;;;;15.84;38.28;96256.88;6293709;28;20717;-35
2023/03/09 14:07:44;;;;;;;1.10;0.60;;;;;;;15.56;38.70;96254.34;6295971;28;20604;-36
2023/03/09 14:10:48;;;;;;;1.87;0.50;;;;;;;15.62;38.97;96269.25;6292052;28;20733;-36
2023/03/09 14:14:08;;;;;;;1.47;0.63;;;;;;;15.68;39.48;96278.75;6296596;28;20367;-36
2023/03/09 14:17:17;;;;;;;2.80;1.00;;;;;;;15.44;38.52;96244.19;6293014;28;20233;-36
2023/03/09 14:20:23;;;;;;;1.87;0.60;;;;;;;15.60;37.88;96211.56;6292417;28;20320;-36
2023/03/09 14:23:42;;;;;;;0.93;0.50;;;;;;;15.73;38.12;96254.47;6307539;28;20644;-36
2023/03/09 14:26:45;;;;;;;1.63;0.73;;;;;;;15.49;38.83;96240.59;6292641;28;20582;-35
2023/03/09 14:29:47;;;;;;;1.93;0.70;;;;;;;15.41;38.81;96268.16;6294334;28;20316;-35
2023/03/09 14:33:05;;;;;;;2.43;0.60;;;;;;;15.35;39.04;96269.38;6295644;28;20710;-36
2023/03/09 14:36:18;;;;;;;2.67;0.90;;;;;;;15.18;39.00;96268.19;6289828;28;20257;-36
2023/03/09 14:39:23;;;;;;;1.33;0.80;;;;;;;15.18;39.24;96270.09;6294340;28;20256;-36